Time;durP1;ratioP1;P1;durP2;ratioP2;P2;SDS_P1;SDS_P2;PMS_P1;PMS_P2;Temp;Humidity;BMP_temperature;BMP_pressure;BME280_temperature;BME280_humidity;BME280_pressure;Samples;Min_cycle;Max_cycle;Signal;HPM_P1;HPM_P2
2023/06/30 00:00:36;;;;;;;1.55;0.57;;;26.10;46.20;;;;;;5045718;28;20071;-65
2023/06/30 00:03:03;;;;;;;2.10;0.50;;;26.10;46.20;;;;;;5037646;28;20037;-65
2023/06/30 00:05:29;;;;;;;1.25;0.68;;;26.10;46.20;;;;;;5040779;28;20389;-64
2023/06/30 00:07:58;;;;;;;2.05;0.65;;;26.10;46.10;;;;;;5040123;28;20069;-63
2023/06/30 00:10:25;;;;;;;3.10;0.90;;;26.10;46.10;;;;;;5043005;28;20122;-64
2023/06/30 00:12:51;;;;;;;1.73;0.65;;;26.10;46.00;;;;;;5037756;28;20116;-63
2023/06/30 00:15:17;;;;;;;2.58;0.82;;;26.10;46.00;;;;;;5040972;28;20100;-65
2023/06/30 00:17:43;;;;;;;4.20;0.90;;;26.10;46.00;;;;;;5041127;28;20116;-64
2023/06/30 00:20:09;;;;;;;1.83;0.70;;;26.10;46.10;;;;;;5018625;28;20548;-64
2023/06/30 00:22:35;;;;;;;1.65;0.75;;;26.00;45.80;;;;;;5039921;28;20365;-64
2023/06/30 00:25:02;;;;;;;2.03;1.00;;;26.00;45.70;;;;;;5038035;28;20033;-65
2023/06/30 00:27:28;;;;;;;1.17;0.60;;;26.00;45.60;;;;;;5039085;28;20044;-65
2023/06/30 00:29:54;;;;;;;1.38;0.55;;;26.00;45.60;;;;;;5026447;28;20043;-65
2023/06/30 00:32:20;;;;;;;2.53;0.80;;;26.00;45.50;;;;;;5021842;28;20037;-64
2023/06/30 00:34:46;;;;;;;2.10;0.90;;;26.00;45.40;;;;;;5041519;28;20409;-63
2023/06/30 00:37:14;;;;;;;1.70;0.60;;;26.00;45.40;;;;;;5023477;28;20433;-65
2023/06/30 00:39:40;;;;;;;2.67;1.00;;;26.00;45.30;;;;;;5023450;28;20365;-65
2023/06/30 00:42:08;;;;;;;1.98;0.70;;;26.00;45.30;;;;;;5046295;28;20112;-63
2023/06/30 00:44:34;;;;;;;2.13;1.00;;;26.00;45.20;;;;;;5037761;28;20060;-65
2023/06/30 00:47:00;;;;;;;1.50;0.60;;;25.90;45.10;;;;;;5042212;28;20040;-64
2023/06/30 00:49:28;;;;;;;2.45;0.70;;;26.00;45.20;;;;;;5026753;28;20427;-64
2023/06/30 00:51:54;;;;;;;1.27;0.70;;;25.90;45.20;;;;;;5029325;28;20419;-63
2023/06/30 00:54:20;;;;;;;2.03;0.80;;;26.00;45.10;;;;;;5041480;28;20035;-65
2023/06/30 00:56:48;;;;;;;2.28;0.68;;;25.90;45.00;;;;;;5028352;28;20187;-65
2023/06/30 00:59:14;;;;;;;2.38;0.70;;;25.90;45.00;;;;;;5030861;28;20033;-64
2023/06/30 01:01:56;;;;;;;1.58;0.60;;;25.90;44.90;;;;;;5047103;28;20361;-66
2023/06/30 01:04:53;;;;;;;1.40;0.65;;;25.90;44.90;;;;;;5029833;28;20561;-65
2023/06/30 01:07:39;;;;;;;2.05;0.82;;;25.90;44.90;;;;;;5020206;28;20029;-65
2023/06/30 01:10:20;;;;;;;1.27;0.50;;;25.90;44.80;;;;;;5027002;28;20124;-63
2023/06/30 01:12:48;;;;;;;2.10;0.70;;;25.90;44.90;;;;;;5026777;28;20090;-63
2023/06/30 01:15:15;;;;;;;1.15;0.63;;;25.90;44.90;;;;;;5040939;28;20143;-63
2023/06/30 01:17:59;;;;;;;1.60;0.70;;;25.90;44.80;;;;;;5028372;28;20040;-63
2023/06/30 01:20:30;;;;;;;2.00;0.75;;;25.90;44.80;;;;;;5039934;28;20091;-64
2023/06/30 01:23:06;;;;;;;1.63;0.60;;;25.80;44.80;;;;;;5028109;28;20107;-64
2023/06/30 01:25:32;;;;;;;2.30;0.73;;;25.80;44.70;;;;;;5021728;28;20082;-65
2023/06/30 01:27:59;;;;;;;2.08;0.63;;;25.80;44.70;;;;;;5042125;28;20097;-63
2023/06/30 01:30:29;;;;;;;2.42;0.70;;;25.80;44.80;;;;;;5027223;28;20703;-66
2023/06/30 01:32:56;;;;;;;1.33;0.60;;;25.80;44.80;;;;;;5044416;28;20463;-64
2023/06/30 01:35:23;;;;;;;3.13;0.80;;;25.80;44.70;;;;;;5024007;28;20146;-63
2023/06/30 01:37:49;;;;;;;1.70;0.70;;;25.80;44.70;;;;;;5039055;28;20088;-64
2023/06/30 01:40:15;;;;;;;1.77;0.80;;;25.80;44.70;;;;;;5025739;28;20069;-65
2023/06/30 01:42:42;;;;;;;2.15;0.70;;;25.80;44.70;;;;;;5030629;28;20369;-63
2023/06/30 01:45:10;;;;;;;2.45;0.80;;;25.80;45.30;;;;;;5005155;28;20046;-63
2023/06/30 01:47:36;;;;;;;2.30;0.65;;;25.80;44.60;;;;;;5003934;28;20160;-63
2023/06/30 01:50:03;;;;;;;1.63;0.85;;;25.80;44.60;;;;;;5002924;28;20038;-66
2023/06/30 01:52:29;;;;;;;1.88;0.70;;;25.70;44.50;;;;;;5001295;28;20032;-64
2023/06/30 01:54:57;;;;;;;2.42;0.80;;;25.80;44.60;;;;;;5006144;28;20165;-63
2023/06/30 01:57:24;;;;;;;1.25;0.68;;;25.80;44.50;;;;;;5005281;28;20425;-66
2023/06/30 01:59:49;;;;;;;3.38;0.70;;;25.70;44.50;;;;;;5003176;28;20030;-64
2023/06/30 02:02:15;;;;;;;1.40;0.60;;;25.70;44.40;;;;;;5005680;28;21367;-64
2023/06/30 02:04:41;;;;;;;1.58;0.80;;;25.70;44.40;;;;;;5005997;28;20124;-64
2023/06/30 02:07:08;;;;;;;2.00;0.65;;;25.70;44.40;;;;;;5004064;28;20037;-65
2023/06/30 02:09:36;;;;;;;3.05;0.70;;;25.70;44.30;;;;;;5004223;28;20049;-63
2023/06/30 02:12:02;;;;;;;3.30;1.10;;;25.70;44.30;;;;;;5002734;28;20034;-64
2023/06/30 02:14:28;;;;;;;2.22;0.70;;;25.70;44.30;;;;;;5002821;28;20061;-64
2023/06/30 02:16:54;;;;;;;3.40;0.75;;;25.70;44.30;;;;;;5003913;28;20375;-63
2023/06/30 02:19:23;;;;;;;2.97;0.68;;;25.60;44.20;;;;;;5005534;28;20088;-64
2023/06/30 02:21:50;;;;;;;1.85;1.00;;;25.60;44.10;;;;;;5008343;28;20040;-64
2023/06/30 02:24:18;;;;;;;1.90;0.73;;;25.70;44.20;;;;;;5003839;28;20330;-64
2023/06/30 02:26:47;;;;;;;1.55;0.60;;;25.60;44.10;;;;;;5004891;28;20052;-64
2023/06/30 02:29:13;;;;;;;1.70;0.75;;;25.60;44.10;;;;;;5002170;28;20092;-62
2023/06/30 02:31:39;;;;;;;2.53;0.88;;;25.60;44.00;;;;;;5001139;28;20042;-65
2023/06/30 02:34:05;;;;;;;1.25;0.70;;;25.60;44.00;;;;;;5007577;28;20025;-64
2023/06/30 02:36:31;;;;;;;1.85;0.73;;;25.60;44.00;;;;;;5008596;28;20315;-64
2023/06/30 02:38:57;;;;;;;2.35;0.82;;;25.60;44.00;;;;;;5004618;28;20045;-64
2023/06/30 02:41:23;;;;;;;2.22;1.20;;;25.60;43.90;;;;;;4998811;28;20036;-62
2023/06/30 02:43:49;;;;;;;3.25;0.90;;;25.60;43.90;;;;;;5015841;28;20108;-64
2023/06/30 02:46:15;;;;;;;2.72;0.85;;;25.60;43.90;;;;;;5025959;28;20028;-65
2023/06/30 02:48:42;;;;;;;1.50;0.60;;;25.60;43.90;;;;;;5026617;28;20076;-64
2023/06/30 02:51:08;;;;;;;1.73;0.90;;;25.50;43.80;;;;;;5029520;28;20052;-64
2023/06/30 02:53:33;;;;;;;2.80;0.80;;;25.60;43.80;;;;;;5029112;28;20434;-63
2023/06/30 02:56:00;;;;;;;2.25;0.70;;;25.50;43.70;;;;;;5025492;28;20577;-65
2023/06/30 02:58:26;;;;;;;1.98;1.00;;;25.50;43.70;;;;;;5017821;28;20025;-63
2023/06/30 03:00:52;;;;;;;1.73;0.70;;;25.50;43.70;;;;;;5022046;28;20049;-63
2023/06/30 03:03:18;;;;;;;1.60;0.77;;;25.50;43.70;;;;;;5026561;28;20072;-64
2023/06/30 03:05:44;;;;;;;4.13;0.80;;;25.50;43.60;;;;;;5024056;28;20129;-63
2023/06/30 03:08:10;;;;;;;1.67;0.70;;;25.50;43.60;;;;;;5025199;28;20053;-64
2023/06/30 03:10:36;;;;;;;1.65;0.77;;;25.50;43.60;;;;;;5045911;28;20117;-63
2023/06/30 03:13:03;;;;;;;2.22;0.80;;;25.50;43.60;;;;;;5043935;28;20120;-62
2023/06/30 03:15:29;;;;;;;2.97;0.77;;;25.50;43.60;;;;;;5029670;28;20048;-62
2023/06/30 03:17:55;;;;;;;1.38;0.70;;;25.40;43.50;;;;;;5024019;28;20073;-62
2023/06/30 03:20:23;;;;;;;2.15;0.90;;;25.40;43.50;;;;;;5026416;28;20171;-63
2023/06/30 03:22:49;;;;;;;2.25;0.80;;;25.40;43.40;;;;;;5022137;28;20036;-63
2023/06/30 03:25:15;;;;;;;1.88;0.88;;;25.40;43.40;;;;;;5022256;28;20036;-63
2023/06/30 03:27:42;;;;;;;1.45;0.75;;;25.40;43.40;;;;;;5025774;28;20434;-64
2023/06/30 03:30:08;;;;;;;1.80;0.80;;;25.40;43.40;;;;;;5042615;28;20120;-63
2023/06/30 03:32:38;;;;;;;2.22;0.80;;;25.40;43.40;;;;;;5024346;28;20167;-63
2023/06/30 03:35:04;;;;;;;2.75;0.85;;;25.40;43.40;;;;;;5038593;28;20116;-64
2023/06/30 03:37:32;;;;;;;2.17;0.70;;;25.40;43.30;;;;;;5039451;28;20425;-62
2023/06/30 03:40:00;;;;;;;1.58;0.50;;;25.40;43.30;;;;;;5026167;28;20025;-63
2023/06/30 03:42:27;;;;;;;1.83;0.80;;;25.40;43.30;;;;;;5022374;28;20426;-63
2023/06/30 03:44:53;;;;;;;1.33;0.70;;;25.40;43.30;;;;;;5042712;28;20056;-62
2023/06/30 03:47:19;;;;;;;2.83;0.85;;;25.40;43.30;;;;;;5043794;28;20092;-62
2023/06/30 03:49:44;;;;;;;1.05;0.57;;;25.40;43.30;;;;;;5029076;28;20047;-62
2023/06/30 03:52:10;;;;;;;2.45;0.88;;;25.40;43.30;;;;;;5041028;28;20182;-62
2023/06/30 03:54:36;;;;;;;1.67;0.80;;;25.40;43.20;;;;;;5022257;28;20017;-63
2023/06/30 03:57:02;;;;;;;2.00;0.68;;;25.30;43.10;;;;;;5043376;28;20037;-64
2023/06/30 03:59:28;;;;;;;1.65;0.70;;;25.30;43.10;;;;;;5023675;28;20044;-64
2023/06/30 04:01:54;;;;;;;1.42;0.65;;;25.30;43.10;;;;;;5042974;28;20031;-63
2023/06/30 04:04:20;;;;;;;2.28;0.80;;;25.30;43.10;;;;;;5022292;28;20033;-64
2023/06/30 04:06:47;;;;;;;2.20;0.80;;;25.30;43.10;;;;;;5037488;28;20136;-63
2023/06/30 04:09:13;;;;;;;0.98;0.75;;;25.30;43.30;;;;;;5044559;28;20110;-62
2023/06/30 04:11:39;;;;;;;2.08;0.80;;;25.30;43.00;;;;;;5040628;28;20083;-64
2023/06/30 04:14:05;;;;;;;1.40;0.70;;;25.30;43.00;;;;;;5041491;28;20037;-64
2023/06/30 04:16:31;;;;;;;2.42;0.90;;;25.30;43.00;;;;;;5043405;28;20476;-65
2023/06/30 04:18:57;;;;;;;1.75;0.82;;;25.30;43.00;;;;;;5041926;28;20124;-65
2023/06/30 04:21:23;;;;;;;1.67;0.70;;;25.30;42.90;;;;;;5041334;28;20090;-65
2023/06/30 04:23:48;;;;;;;1.73;0.80;;;25.30;42.90;;;;;;5024834;28;20245;-64
2023/06/30 04:26:18;;;;;;;1.88;0.73;;;25.30;42.90;;;;;;5041767;28;20397;-64
2023/06/30 04:28:45;;;;;;;2.33;0.80;;;25.30;42.80;;;;;;5044225;28;20450;-64
2023/06/30 04:31:11;;;;;;;1.00;0.50;;;25.30;42.80;;;;;;5043414;28;20100;-64
2023/06/30 04:33:37;;;;;;;3.47;0.93;;;25.30;42.80;;;;;;5044528;28;20463;-64
2023/06/30 04:36:03;;;;;;;2.22;0.70;;;25.30;42.70;;;;;;5041488;28;20033;-64
2023/06/30 04:38:30;;;;;;;1.30;0.68;;;25.30;42.70;;;;;;5041570;28;20085;-64
2023/06/30 04:40:56;;;;;;;2.00;0.70;;;25.30;42.70;;;;;;5041090;28;20021;-64
2023/06/30 04:43:22;;;;;;;1.60;0.80;;;25.30;42.70;;;;;;5042977;28;20301;-63
2023/06/30 04:45:49;;;;;;;1.70;0.60;;;25.30;42.60;;;;;;5041187;28;20140;-62
2023/06/30 04:48:15;;;;;;;1.85;0.70;;;25.30;42.60;;;;;;5038707;28;20109;-62
2023/06/30 04:50:41;;;;;;;1.88;0.65;;;25.30;42.60;;;;;;5041157;28;20169;-64
2023/06/30 04:53:06;;;;;;;2.65;0.60;;;25.30;42.50;;;;;;5040279;28;20025;-64
2023/06/30 04:55:32;;;;;;;1.85;0.65;;;25.30;42.50;;;;;;5043655;28;20043;-63
2023/06/30 04:57:58;;;;;;;1.02;0.60;;;25.30;42.50;;;;;;5041958;28;20286;-64
2023/06/30 05:00:25;;;;;;;1.55;0.60;;;25.30;42.50;;;;;;5043813;28;20368;-66
2023/06/30 05:02:51;;;;;;;1.30;0.60;;;25.30;42.50;;;;;;5036818;28;20097;-65
2023/06/30 05:05:17;;;;;;;1.70;0.57;;;25.30;42.40;;;;;;5039939;28;20045;-64
2023/06/30 05:07:43;;;;;;;1.42;0.80;;;25.30;42.40;;;;;;5040449;28;20036;-65
2023/06/30 05:10:10;;;;;;;1.13;0.50;;;25.40;42.40;;;;;;5043378;28;20070;-61
2023/06/30 05:12:36;;;;;;;2.05;0.73;;;25.30;42.40;;;;;;5041980;28;20377;-62
2023/06/30 05:15:02;;;;;;;1.05;0.60;;;25.40;42.40;;;;;;5039205;28;20536;-62
2023/06/30 05:17:28;;;;;;;1.90;0.50;;;25.40;42.40;;;;;;5040182;28;20453;-64
2023/06/30 05:19:54;;;;;;;2.40;0.77;;;25.40;42.40;;;;;;5039288;28;20052;-63
2023/06/30 05:22:20;;;;;;;2.22;0.60;;;25.40;42.30;;;;;;5041478;28;20116;-63
2023/06/30 05:24:46;;;;;;;1.63;0.60;;;25.40;42.30;;;;;;5040229;28;20033;-64
2023/06/30 05:27:12;;;;;;;1.73;0.70;;;25.40;42.30;;;;;;5044075;28;20559;-62
2023/06/30 05:29:38;;;;;;;1.90;1.00;;;25.40;42.30;;;;;;5018908;28;20034;-63
2023/06/30 05:32:04;;;;;;;2.35;0.70;;;25.40;42.30;;;;;;5024737;28;20047;-64
2023/06/30 05:34:30;;;;;;;1.60;0.60;;;25.40;42.30;;;;;;5043259;28;20056;-63
2023/06/30 05:36:56;;;;;;;2.55;0.90;;;25.40;42.20;;;;;;5046432;28;20053;-64
2023/06/30 05:39:24;;;;;;;1.85;0.57;;;25.40;42.20;;;;;;5046091;28;20029;-63
2023/06/30 05:41:50;;;;;;;1.65;0.65;;;25.40;42.20;;;;;;5026462;28;20917;-64
2023/06/30 05:44:16;;;;;;;1.52;0.65;;;25.40;42.20;;;;;;5044547;28;20063;-64
2023/06/30 05:46:42;;;;;;;1.23;0.60;;;25.40;42.20;;;;;;5047346;28;20056;-64
2023/06/30 05:49:08;;;;;;;0.93;0.50;;;25.40;42.20;;;;;;5045226;28;20057;-63
2023/06/30 05:51:35;;;;;;;1.33;0.68;;;25.40;42.20;;;;;;5047001;28;21579;-64
2023/06/30 05:54:04;;;;;;;1.25;0.60;;;25.40;42.20;;;;;;5044672;28;20060;-65
2023/06/30 05:56:30;;;;;;;1.92;0.50;;;25.40;42.30;;;;;;5046139;28;20029;-63
2023/06/30 05:58:57;;;;;;;1.67;0.70;;;25.50;42.30;;;;;;5048137;28;20033;-64
2023/06/30 06:01:23;;;;;;;2.30;0.77;;;25.50;42.30;;;;;;5044448;28;21570;-64
2023/06/30 06:03:49;;;;;;;2.15;0.65;;;25.40;42.30;;;;;;5044017;28;20048;-63
2023/06/30 06:06:15;;;;;;;1.83;0.50;;;25.50;43.00;;;;;;5042243;28;20025;-64
2023/06/30 06:08:46;;;;;;;1.35;0.70;;;25.50;42.40;;;;;;5044012;28;20031;-65
2023/06/30 06:11:13;;;;;;;2.28;0.93;;;25.50;42.40;;;;;;5045993;28;20429;-63
2023/06/30 06:13:39;;;;;;;0.90;0.50;;;25.40;42.30;;;;;;5046352;28;20037;-63
2023/06/30 06:16:07;;;;;;;1.50;0.50;;;25.50;42.40;;;;;;5028714;28;20067;-63
2023/06/30 06:18:33;;;;;;;1.30;0.60;;;25.50;42.40;;;;;;5044970;28;20024;-62
2023/06/30 06:21:02;;;;;;;1.92;0.88;;;25.50;42.40;;;;;;5045785;28;20079;-62
2023/06/30 06:23:27;;;;;;;1.42;0.65;;;25.50;42.40;;;;;;5039878;28;20107;-62
2023/06/30 06:25:53;;;;;;;2.67;0.63;;;25.50;42.40;;;;;;5041291;28;20021;-63
2023/06/30 06:28:19;;;;;;;2.20;0.70;;;25.50;42.40;;;;;;5043568;28;20102;-63
2023/06/30 06:30:45;;;;;;;2.75;0.77;;;25.50;42.40;;;;;;5045557;28;20114;-63
2023/06/30 06:33:11;;;;;;;3.28;0.77;;;25.50;42.40;;;;;;5043527;28;20121;-63
2023/06/30 06:35:37;;;;;;;2.67;1.30;;;25.50;42.40;;;;;;5042034;28;20087;-63
2023/06/30 06:38:03;;;;;;;4.00;1.40;;;25.50;43.00;;;;;;5044106;28;20096;-63
2023/06/30 06:40:29;;;;;;;2.72;0.90;;;25.50;42.40;;;;;;5044365;28;20021;-62
2023/06/30 06:42:55;;;;;;;2.22;1.10;;;25.50;42.30;;;;;;5043986;28;20486;-64
2023/06/30 06:45:26;;;;;;;5.22;1.20;;;25.50;42.40;;;;;;5003744;28;20060;-64
2023/06/30 06:48:17;;;;;;;2.78;0.98;;;25.50;42.40;;;;;;5002351;28;20121;-64
2023/06/30 06:50:43;;;;;;;4.03;1.25;;;25.50;42.30;;;;;;5000777;28;20052;-64
2023/06/30 06:53:09;;;;;;;2.97;1.00;;;25.50;42.40;;;;;;5004138;28;20038;-64
2023/06/30 06:55:36;;;;;;;2.38;1.13;;;25.50;42.40;;;;;;5005284;28;20030;-64
2023/06/30 06:58:02;;;;;;;2.83;1.10;;;25.50;42.40;;;;;;5007819;28;20037;-65
2023/06/30 07:00:28;;;;;;;2.95;0.85;;;25.60;42.40;;;;;;5007464;28;20108;-65
2023/06/30 07:02:54;;;;;;;4.13;1.10;;;25.50;42.30;;;;;;5007389;28;20610;-66
2023/06/30 07:05:20;;;;;;;2.72;0.90;;;25.50;42.20;;;;;;5006195;28;20462;-63
2023/06/30 07:07:46;;;;;;;3.33;1.05;;;25.50;42.20;;;;;;5000096;28;20033;-65
2023/06/30 07:10:12;;;;;;;4.18;1.23;;;25.50;42.20;;;;;;4994977;28;20026;-65
2023/06/30 07:12:38;;;;;;;4.45;1.00;;;25.50;42.20;;;;;;5004773;28;20033;-64
2023/06/30 07:15:05;;;;;;;2.72;1.00;;;25.50;42.20;;;;;;5005926;28;20049;-65
2023/06/30 07:17:31;;;;;;;3.13;0.90;;;25.50;42.20;;;;;;5013325;28;20116;-62
2023/06/30 07:19:57;;;;;;;3.00;0.90;;;25.50;42.20;;;;;;5003057;28;20113;-64
2023/06/30 07:22:22;;;;;;;2.95;0.93;;;25.50;42.10;;;;;;5002563;28;20462;-63
2023/06/30 07:24:48;;;;;;;2.42;0.90;;;25.50;42.10;;;;;;4997508;28;20042;-64
2023/06/30 07:27:14;;;;;;;3.67;0.90;;;25.50;42.70;;;;;;5001333;28;20092;-64
2023/06/30 07:29:40;;;;;;;2.45;0.73;;;25.50;42.10;;;;;;5012327;28;20026;-63
2023/06/30 07:32:06;;;;;;;1.88;0.80;;;25.50;42.00;;;;;;5007113;28;20038;-65
2023/06/30 07:34:33;;;;;;;2.30;0.90;;;25.50;41.90;;;;;;5002449;28;20030;-64
2023/06/30 07:37:00;;;;;;;1.45;0.80;;;25.50;41.80;;;;;;5006519;28;20041;-63
2023/06/30 07:39:26;;;;;;;1.65;0.73;;;25.50;41.70;;;;;;5021467;28;20152;-64
2023/06/30 07:41:52;;;;;;;2.05;0.77;;;25.50;41.50;;;;;;5004978;28;20026;-65
2023/06/30 07:44:19;;;;;;;1.20;0.73;;;25.60;41.50;;;;;;5023877;28;20067;-63
2023/06/30 07:46:45;;;;;;;1.88;0.60;;;25.50;41.30;;;;;;5023402;28;20037;-63
2023/06/30 07:49:11;;;;;;;1.30;0.60;;;25.50;41.10;;;;;;5043885;28;20112;-63
2023/06/30 07:51:37;;;;;;;0.98;0.52;;;25.60;41.00;;;;;;5045118;28;20086;-63
2023/06/30 07:54:03;;;;;;;1.98;0.60;;;25.60;40.90;;;;;;5040370;28;20401;-64
2023/06/30 07:56:29;;;;;;;1.27;0.70;;;25.60;40.80;;;;;;5045023;28;20045;-61
2023/06/30 07:58:55;;;;;;;2.25;0.85;;;25.60;40.70;;;;;;5038349;28;20102;-64
2023/06/30 08:01:21;;;;;;;1.00;0.60;;;25.60;40.60;;;;;;5030330;28;20157;-62
2023/06/30 08:03:48;;;;;;;1.85;0.60;;;25.60;40.60;;;;;;5051146;28;20077;-64
2023/06/30 08:06:14;;;;;;;1.45;0.70;;;25.60;40.50;;;;;;5050900;28;20474;-64
2023/06/30 08:08:40;;;;;;;1.42;0.63;;;25.60;40.50;;;;;;5044055;28;20074;-63
2023/06/30 08:11:06;;;;;;;1.25;0.50;;;25.60;40.40;;;;;;5043440;28;20035;-63
2023/06/30 08:13:32;;;;;;;0.95;0.50;;;25.60;40.30;;;;;;5044915;28;20044;-63
2023/06/30 08:15:57;;;;;;;1.10;0.40;;;25.60;40.20;;;;;;5051136;28;20143;-64
2023/06/30 08:18:23;;;;;;;2.40;0.60;;;25.60;40.20;;;;;;5036065;28;20017;-64
2023/06/30 08:20:49;;;;;;;1.30;0.43;;;25.60;40.10;;;;;;5031476;28;20377;-65
2023/06/30 08:23:15;;;;;;;0.70;0.40;;;25.60;40.10;;;;;;5033497;28;20025;-65
2023/06/30 08:25:41;;;;;;;1.63;0.50;;;25.60;40.00;;;;;;5046114;28;20128;-64
2023/06/30 08:28:07;;;;;;;0.50;0.35;;;25.70;40.00;;;;;;5050901;28;20071;-64
2023/06/30 08:30:32;;;;;;;1.08;0.47;;;25.60;39.80;;;;;;5033111;28;20029;-63
2023/06/30 08:32:58;;;;;;;1.90;0.60;;;25.60;39.80;;;;;;5048231;28;20139;-64
2023/06/30 08:35:24;;;;;;;0.57;0.40;;;25.60;39.80;;;;;;5045408;28;20097;-66
2023/06/30 08:37:50;;;;;;;1.23;0.60;;;25.60;39.70;;;;;;5045898;28;20101;-64
2023/06/30 08:40:26;;;;;;;1.52;0.50;;;25.70;39.80;;;;;;5031195;28;20091;-63
2023/06/30 08:42:59;;;;;;;1.02;0.65;;;25.70;39.70;;;;;;5033681;28;20131;-65
2023/06/30 08:45:27;;;;;;;1.35;0.50;;;25.70;39.70;;;;;;5049758;28;20131;-63
2023/06/30 08:47:59;;;;;;;2.03;0.70;;;25.70;39.60;;;;;;5050689;28;20073;-65
2023/06/30 08:50:26;;;;;;;2.10;0.40;;;25.70;39.50;;;;;;5050107;28;20043;-65
2023/06/30 08:52:53;;;;;;;0.90;0.50;;;25.70;39.50;;;;;;5045579;28;20076;-64
2023/06/30 08:55:20;;;;;;;1.30;0.60;;;25.70;39.40;;;;;;5049701;28;20104;-64
2023/06/30 08:57:47;;;;;;;0.95;0.60;;;25.70;39.30;;;;;;5049987;28;20384;-63
2023/06/30 09:00:14;;;;;;;0.82;0.43;;;25.70;39.20;;;;;;5050418;28;20437;-64
2023/06/30 09:02:42;;;;;;;3.53;0.55;;;25.70;39.10;;;;;;5031026;28;20421;-65
2023/06/30 09:05:09;;;;;;;2.10;0.82;;;25.80;39.10;;;;;;5029914;28;20180;-63
2023/06/30 09:07:52;;;;;;;0.47;0.30;;;25.80;38.90;;;;;;5042335;28;20427;-63
2023/06/30 09:10:19;;;;;;;2.38;0.60;;;25.80;38.70;;;;;;5051706;28;20102;-64
2023/06/30 09:12:47;;;;;;;0.90;0.40;;;25.80;38.60;;;;;;5054242;28;20117;-64
2023/06/30 09:15:17;;;;;;;1.75;0.43;;;25.80;38.40;;;;;;5054445;28;20086;-65
2023/06/30 09:17:43;;;;;;;1.30;0.50;;;25.80;38.30;;;;;;5046196;28;20383;-65
2023/06/30 09:20:12;;;;;;;1.05;0.40;;;25.80;38.20;;;;;;5034379;28;20078;-64
2023/06/30 09:22:43;;;;;;;0.70;0.47;;;25.80;38.00;;;;;;5034658;28;20037;-65
2023/06/30 09:25:41;;;;;;;1.05;0.38;;;25.80;37.90;;;;;;5016148;28;20210;-63
2023/06/30 09:28:13;;;;;;;1.00;0.40;;;25.80;37.80;;;;;;4980283;28;20405;-64
2023/06/30 09:30:45;;;;;;;1.10;0.40;;;25.80;37.80;;;;;;5016418;28;20025;-64
2023/06/30 09:33:14;;;;;;;1.20;0.40;;;25.80;37.70;;;;;;5016287;28;20045;-63
2023/06/30 09:35:42;;;;;;;1.02;0.47;;;25.80;37.70;;;;;;5016266;28;20038;-64
2023/06/30 09:38:10;;;;;;;1.58;0.47;;;25.80;37.60;;;;;;5034002;28;20029;-63
2023/06/30 09:40:36;;;;;;;0.98;0.47;;;25.80;37.60;;;;;;5035874;28;20040;-65
2023/06/30 09:43:04;;;;;;;0.88;0.60;;;25.90;37.60;;;;;;5035730;28;20329;-63
2023/06/30 09:45:30;;;;;;;0.98;0.50;;;25.90;37.60;;;;;;5052971;28;20056;-63
2023/06/30 09:47:56;;;;;;;1.20;0.50;;;25.90;37.50;;;;;;5052408;28;20041;-64
2023/06/30 09:50:24;;;;;;;1.65;0.40;;;25.90;37.40;;;;;;5015860;28;20085;-63
2023/06/30 09:52:51;;;;;;;1.40;0.52;;;25.90;37.30;;;;;;5033821;28;20103;-63
2023/06/30 09:55:17;;;;;;;0.93;0.40;;;25.90;37.30;;;;;;5033564;28;20420;-64
2023/06/30 09:57:43;;;;;;;0.93;0.55;;;25.90;37.20;;;;;;5033759;28;20061;-64
2023/06/30 10:00:14;;;;;;;0.95;0.38;;;25.90;37.10;;;;;;5050648;28;20029;-66
2023/06/30 10:02:40;;;;;;;1.38;0.50;;;25.90;37.10;;;;;;5052080;28;20063;-65
2023/06/30 10:05:07;;;;;;;1.02;0.60;;;25.90;37.10;;;;;;5028533;28;20033;-63
2023/06/30 10:07:34;;;;;;;0.60;0.50;;;25.90;37.00;;;;;;5039814;28;20100;-62
2023/06/30 10:10:01;;;;;;;0.88;0.40;;;25.90;37.00;;;;;;5033911;28;20032;-63
2023/06/30 10:12:33;;;;;;;0.88;0.40;;;26.00;37.00;;;;;;5032984;28;20045;-65
2023/06/30 10:15:00;;;;;;;0.80;0.35;;;26.00;36.90;;;;;;5034791;28;20108;-64
2023/06/30 10:17:29;;;;;;;1.90;1.00;;;26.00;36.90;;;;;;5043812;28;20033;-64
2023/06/30 10:19:56;;;;;;;0.75;0.30;;;26.00;36.90;;;;;;5048863;28;20041;-64
2023/06/30 10:22:22;;;;;;;0.60;0.35;;;26.00;36.90;;;;;;5052445;28;20033;-64
2023/06/30 10:24:49;;;;;;;0.95;0.50;;;26.00;37.00;;;;;;5053163;28;20076;-64
2023/06/30 10:27:18;;;;;;;1.05;0.50;;;25.90;36.90;;;;;;5053172;28;20037;-64
2023/06/30 10:29:46;;;;;;;0.80;0.35;;;26.00;37.00;;;;;;5035924;28;20029;-65
2023/06/30 10:32:12;;;;;;;0.60;0.40;;;26.00;37.00;;;;;;5029911;28;20021;-64
2023/06/30 10:34:39;;;;;;;0.50;0.40;;;26.00;37.10;;;;;;5052570;28;20305;-64
2023/06/30 10:37:05;;;;;;;1.73;0.70;;;26.00;37.10;;;;;;5046666;28;20391;-64
2023/06/30 10:39:31;;;;;;;1.65;0.60;;;26.00;37.10;;;;;;5040706;28;20341;-64
2023/06/30 10:42:00;;;;;;;1.65;0.60;;;26.00;37.20;;;;;;5040490;28;20399;-66
2023/06/30 10:44:46;;;;;;;1.98;0.80;;;26.00;37.20;;;;;;5051285;28;20052;-64
2023/06/30 10:47:12;;;;;;;0.80;0.70;;;26.00;37.10;;;;;;5045075;28;20101;-63
2023/06/30 10:49:41;;;;;;;1.80;0.82;;;26.00;37.10;;;;;;5048230;28;20182;-64
2023/06/30 10:52:11;;;;;;;1.42;0.52;;;26.00;37.20;;;;;;5046091;28;20602;-66
2023/06/30 10:54:44;;;;;;;1.42;0.60;;;26.00;37.10;;;;;;5008651;28;20137;-65
2023/06/30 10:57:14;;;;;;;1.15;0.50;;;26.00;37.10;;;;;;5028450;28;20035;-63
2023/06/30 10:59:44;;;;;;;1.48;0.60;;;26.00;37.20;;;;;;5045584;28;20416;-65
2023/06/30 11:02:13;;;;;;;2.03;0.70;;;26.00;37.20;;;;;;5044905;28;20029;-65
2023/06/30 11:04:41;;;;;;;1.70;0.60;;;26.00;37.20;;;;;;5044359;28;20553;-64
2023/06/30 11:07:10;;;;;;;1.33;0.63;;;26.00;37.20;;;;;;5036104;28;20029;-63
2023/06/30 11:09:48;;;;;;;1.38;0.50;;;26.00;37.20;;;;;;5040739;28;20037;-66
2023/06/30 11:12:23;;;;;;;1.73;0.70;;;26.00;37.20;;;;;;5042629;28;20142;-63
2023/06/30 11:14:59;;;;;;;1.27;0.68;;;26.00;37.20;;;;;;5044997;28;20037;-63
2023/06/30 11:17:51;;;;;;;2.08;0.70;;;26.00;37.20;;;;;;5044236;28;20033;-65
2023/06/30 11:20:17;;;;;;;1.20;0.60;;;26.00;37.20;;;;;;5042247;28;20033;-65
2023/06/30 11:23:15;;;;;;;0.90;0.47;;;26.00;37.30;;;;;;5048511;28;20121;-65
2023/06/30 11:25:41;;;;;;;1.33;0.70;;;26.00;37.10;;;;;;5044706;28;20048;-65
2023/06/30 11:28:08;;;;;;;1.20;0.75;;;26.00;37.20;;;;;;5041875;28;20446;-63
2023/06/30 11:30:41;;;;;;;1.85;0.77;;;26.00;37.20;;;;;;5044285;28;20079;-64
2023/06/30 11:33:07;;;;;;;1.55;0.60;;;26.00;37.20;;;;;;5044341;28;20056;-63
2023/06/30 11:35:35;;;;;;;1.30;0.60;;;26.00;37.20;;;;;;5022651;28;20334;-65
2023/06/30 11:38:01;;;;;;;1.55;0.70;;;26.10;37.20;;;;;;5044289;28;20096;-69
2023/06/30 11:40:27;;;;;;;2.08;0.68;;;26.00;37.20;;;;;;5018228;28;20041;-69
2023/06/30 11:42:54;;;;;;;5.40;0.60;;;26.10;37.40;;;;;;5037923;28;20022;-71
2023/06/30 11:45:21;;;;;;;1.30;0.57;;;26.10;37.50;;;;;;5040564;28;20068;-68
2023/06/30 11:47:51;;;;;;;1.17;0.50;;;26.10;37.60;;;;;;5040879;28;20091;-65
2023/06/30 11:50:18;;;;;;;0.45;0.38;;;26.20;37.70;;;;;;5021434;28;20044;-68
2023/06/30 11:52:46;;;;;;;1.30;0.50;;;26.30;37.70;;;;;;5044501;28;20042;-63
2023/06/30 11:55:13;;;;;;;3.20;0.60;;;26.40;37.70;;;;;;5041619;28;20048;-63
2023/06/30 11:57:41;;;;;;;1.63;0.63;;;26.40;37.60;;;;;;5041115;28;20069;-64
2023/06/30 12:00:12;;;;;;;1.98;0.57;;;26.50;37.50;;;;;;5039566;28;20583;-67
2023/06/30 12:02:57;;;;;;;1.17;0.60;;;26.60;37.40;;;;;;5041723;28;20259;-62
2023/06/30 12:05:25;;;;;;;1.05;0.45;;;26.70;37.30;;;;;;5043163;28;20415;-63
2023/06/30 12:07:52;;;;;;;1.08;0.60;;;26.70;37.30;;;;;;5035439;28;20056;-65
2023/06/30 12:10:18;;;;;;;0.93;0.52;;;26.70;37.20;;;;;;5040045;28;20029;-65
2023/06/30 12:12:56;;;;;;;0.63;0.50;;;26.70;37.20;;;;;;5045258;28;20308;-65
2023/06/30 12:15:22;;;;;;;0.80;0.47;;;26.70;37.10;;;;;;5043731;28;20455;-64
2023/06/30 12:17:52;;;;;;;1.58;0.50;;;26.70;37.20;;;;;;5023540;28;20361;-67
2023/06/30 12:20:21;;;;;;;0.70;0.32;;;26.70;37.20;;;;;;5006922;28;20163;-65
2023/06/30 12:22:53;;;;;;;1.98;0.70;;;26.70;37.20;;;;;;5022684;28;20090;-64
2023/06/30 12:25:24;;;;;;;1.52;0.60;;;26.70;37.20;;;;;;5040458;28;20048;-65
2023/06/30 12:27:54;;;;;;;0.90;0.50;;;26.70;37.10;;;;;;5045387;28;20029;-64
2023/06/30 12:30:21;;;;;;;1.65;0.70;;;26.60;37.00;;;;;;5041342;28;20052;-63
2023/06/30 12:32:58;;;;;;;0.80;0.25;;;26.60;37.00;;;;;;5017793;28;20034;-63
2023/06/30 12:35:33;;;;;;;0.85;0.50;;;26.60;37.00;;;;;;5028361;28;20154;-62
2023/06/30 12:38:04;;;;;;;1.40;0.68;;;26.60;36.90;;;;;;5043552;28;20035;-64
2023/06/30 12:40:30;;;;;;;0.60;0.60;;;26.60;37.00;;;;;;5038458;28;20041;-63
2023/06/30 12:43:00;;;;;;;0.50;0.50;;;26.60;37.00;;;;;;5045494;28;20111;-64
2023/06/30 12:45:26;;;;;;;0.63;0.40;;;26.60;36.90;;;;;;5016424;28;20080;-65
2023/06/30 12:47:53;;;;;;;1.30;0.80;;;26.60;37.00;;;;;;5044093;28;20120;-64
2023/06/30 12:50:19;;;;;;;0.60;0.40;;;26.60;37.00;;;;;;5044291;28;20017;-62